El Paso, TX (88528)

7:24 PM MST on February 01, 2015 (GMT -0700)
Sky Island | Change Station
CLOSE
Current Station
Personal Weather Station
Location: El Paso, TX
Elevation: 4393 ft
Nearby Weather Stations

Elev 4393 ft 31.82 °N, 106.51 °W | Updated 14 minutes ago

Partly Cloudy
Partly Cloudy
52.2 °F
Feels Like 52.2 °F
N
0.0
Wind Variable Wind from ESE

Today
High -- | Low -- °F
--% Chance of Precip.
Yesterday
High -- | Low -- °F
Precip. -- in
6:59 AM 5:39 PM
Waxing Gibbous, 97% visible
Pressure 30.02 in
Visibility 10.0 miles
Clouds Few 3000 ft
Dew Point 41 °F
Humidity 65%
Rainfall 0.45 in
Snow Depth Not available.
UV 0 out of 12
Pollen .20 out of 12
Air Quality Not available.
Flu Activity Not available.
METAR KELP 020151Z 12003KT 10SM FEW030 12/06 A3010 RMK AO2 SLP166 T01170061

More Conditions Fewer Conditions

Pressure 30.02 in
Visibility 10.0 miles
Clouds Few 3000 ft
Dew Point 41 °F
Humidity 65%
Rainfall 0.45 in
Snow Depth Not available.
UV 0 out of 12
Pollen .20 out of 12
Air Quality Not available.
Flu Activity Not available.
METAR KELP 020151Z 12003KT 10SM FEW030 12/06 A3010 RMK AO2 SLP166 T01170061

More Conditions Fewer Conditions

10-Day Weather Forecast

Almanac

Astronomy

Feb. 01, 2015 Rise Set
Actual Time
Civil Twilight
Nautical Twilight
Astronomical Twilight
Moon
Length of Visible Light
Length of Day
Tomorrow will be .
, % of the Moon is Illuminated

Today's Extremes

State Highs State Lows

Community

WunderPhotos

Upload Photos

1,792,655 photos uploaded!

WunderBlogs® & News

Nearby

Air Quality

  Air Quality AQ Index Pollutant
Not available.

Snow Depth

Station Depth Elevation

Earthquake Activity

City Distance Mag. Time & Date
Minimum magnitude displayed is 2.5.

Coastal Water Temperatures

Place Temperature

Nearby Weather Stations